Rechercher aéroport 
image banner adimage banner ad
image banner ad

DFOO - Bobo-Dioulasso

Situé à Bobo-Dioulasso, Burkina Faso

ICAO - DFOO, IATA - BOY

Données fournies par Airmate  

Information générale

Coordonnées: N11°10'3" W4°19'16"
Élévation : 1511 feet MSL.
 
Évalué:
Voir évaluations: [VIEW]


Voir autres Aéroports à Houet

Données opérationnelles

Accessible au public
Heure actuelle UTC:
Heure actuelle locale:
Météo
METAR: DFOO 050900Z 22011KT CAVOK 30/25 Q1014
TAF: TAF DFOO 050500Z 0506/0606 20008KT 9999 FEW020 TEMPO 0514/0524 4000 TSRA SCT020 FEW033CB
Voir NOTAMs / SUP AIP / TFR affectant cet aéroport [VIEW]
Fréquences de communication: [VIEW]

Pistes:

Identifiant RWYQFULongueur (ft)Largeur (ft)SurfaceLDA (ft)
0653°10827148ASP
24233°10827148

Coordonnées de l'aéroport

Adresse: Bobo-Dioulasso Burkina Faso

Vue satellite de DFOO